Terminal Aerodrome Forecast
Issued by NWS

Home | Current Version | Previous Version | Graphics & Text | Print | Product List | Glossary On
Versions: 1 2 3 4 5 6 7 8 9 10 11 12 13 14 15 16 17
000
FTUS43 KBIS 251700
TAFJMS
TAF
KJMS 251737Z 2518/2618 VRB06KT P6SM OVC015
     FM260000 27015KT P6SM OVC080=

USA.gov is the U.S. government's official web portal to all federal, state and local government web resources and services.